Time;durP1;ratioP1;P1;durP2;ratioP2;P2;SDS_P1;SDS_P2;PMS_P1;PMS_P2;Temp;Humidity;BMP_temperature;BMP_pressure;BME280_temperature;BME280_humidity;BME280_pressure;Samples;Min_cycle;Max_cycle;Signal;HPM_P1;HPM_P2
2023/01/30 00:00:57;;;;;;;22.38;8.98;;;-1.50;89.60;;;;;;4966319;28;94661;-70
2023/01/30 00:03:23;;;;;;;23.40;8.73;;;-1.50;89.60;;;;;;4956553;28;93818;-70
2023/01/30 00:05:49;;;;;;;24.45;9.20;;;-1.40;89.70;;;;;;4968019;28;92430;-70
2023/01/30 00:08:16;;;;;;;24.42;9.48;;;-1.50;89.70;;;;;;4967071;28;93555;-71
2023/01/30 00:10:42;;;;;;;20.77;8.00;;;-1.50;89.70;;;;;;4973540;28;92950;-72
2023/01/30 00:13:08;;;;;;;20.85;8.00;;;-1.40;89.30;;;;;;4971547;28;92897;-71
2023/01/30 00:15:33;;;;;;;23.58;8.43;;;-1.40;88.80;;;;;;4982784;28;92375;-71
2023/01/30 00:17:59;;;;;;;22.65;9.05;;;-1.40;88.80;;;;;;4969137;28;91695;-71
2023/01/30 00:20:25;;;;;;;22.90;8.63;;;-1.40;88.40;;;;;;4972165;28;94497;-71
2023/01/30 00:22:50;;;;;;;21.25;8.13;;;-1.50;89.00;;;;;;4972874;28;92481;-71
2023/01/30 00:25:16;;;;;;;21.23;8.52;;;-1.40;89.40;;;;;;4972137;28;93148;-70
2023/01/30 00:27:42;;;;;;;21.35;8.00;;;-1.40;89.40;;;;;;4973561;28;92719;-71
2023/01/30 00:30:08;;;;;;;19.05;6.80;;;-1.40;89.50;;;;;;4969816;28;93256;-70
2023/01/30 00:32:33;;;;;;;21.92;8.25;;;-1.40;89.10;;;;;;4970630;28;93097;-70
2023/01/30 00:34:59;;;;;;;19.92;7.82;;;-1.40;89.10;;;;;;4968763;28;92762;-71
2023/01/30 00:37:25;;;;;;;17.35;7.07;;;-1.40;88.90;;;;;;4973101;28;92496;-71
2023/01/30 00:39:50;;;;;;;21.88;8.15;;;-1.40;88.80;;;;;;4976398;28;92713;-71
2023/01/30 00:47:45;;;;;;;21.90;7.45;;;-1.30;88.70;;;;;;4969507;28;92431;-70
2023/01/30 00:50:11;;;;;;;19.58;7.50;;;-1.30;88.40;;;;;;4974405;28;93684;-70
2023/01/30 00:52:36;;;;;;;23.52;7.97;;;-1.40;88.40;;;;;;4973784;28;93973;-70
2023/01/30 00:55:02;;;;;;;20.65;7.63;;;-1.40;88.60;;;;;;4970567;28;92158;-72
2023/01/30 00:57:28;;;;;;;23.48;8.73;;;-1.40;88.50;;;;;;4973984;28;92363;-70
2023/01/30 00:59:53;;;;;;;22.65;8.43;;;-1.40;88.90;;;;;;4968186;28;92751;-70
2023/01/30 01:02:19;;;;;;;20.55;8.02;;;-1.50;89.30;;;;;;4975809;28;92791;-72
2023/01/30 01:04:45;;;;;;;24.52;8.07;;;-1.60;89.40;;;;;;4976006;28;92600;-70
2023/01/30 01:07:14;;;;;;;21.77;8.02;;;-1.50;89.70;;;;;;4966971;28;92280;-70
2023/01/30 01:09:40;;;;;;;22.67;8.32;;;-1.60;89.60;;;;;;4972281;28;93293;-71
2023/01/30 01:12:06;;;;;;;19.92;8.02;;;-1.60;89.70;;;;;;4975256;28;92891;-72
2023/01/30 01:14:33;;;;;;;21.98;8.55;;;-1.70;89.90;;;;;;4964555;28;93410;-70
2023/01/30 01:16:58;;;;;;;22.30;8.68;;;-1.70;90.10;;;;;;4976744;28;92455;-69
2023/01/30 01:19:25;;;;;;;20.05;8.30;;;-1.70;90.20;;;;;;4970486;28;93725;-69
2023/01/30 01:21:50;;;;;;;22.63;8.50;;;-1.70;90.20;;;;;;4975587;28;92996;-71
2023/01/30 01:24:16;;;;;;;22.88;8.05;;;-1.70;90.10;;;;;;4971879;28;94226;-71
2023/01/30 01:26:43;;;;;;;26.50;8.15;;;-1.70;90.10;;;;;;4971612;28;92540;-71
2023/01/30 01:29:14;;;;;;;23.27;9.57;;;-1.70;90.10;;;;;;4969959;28;93604;-71
2023/01/30 01:31:40;;;;;;;22.40;8.07;;;-1.70;90.10;;;;;;4977260;28;92744;-71
2023/01/30 01:34:06;;;;;;;20.83;8.25;;;-1.70;90.10;;;;;;4976582;28;92584;-71
2023/01/30 01:36:32;;;;;;;20.08;8.13;;;-1.70;90.10;;;;;;4972352;28;92578;-71
2023/01/30 01:38:57;;;;;;;20.10;7.90;;;-1.80;90.00;;;;;;4970028;28;94102;-71
2023/01/30 01:41:24;;;;;;;22.85;8.90;;;-1.80;90.00;;;;;;4973283;28;94822;-70
2023/01/30 01:44:02;;;;;;;22.33;8.52;;;-1.70;90.00;;;;;;4970734;28;93161;-70
2023/01/30 01:46:42;;;;;;;19.98;7.82;;;-1.80;90.00;;;;;;4973262;28;92494;-70
2023/01/30 01:49:35;;;;;;;22.67;8.05;;;-1.80;90.00;;;;;;4970301;28;93916;-72
2023/01/30 01:52:07;;;;;;;23.17;8.13;;;-1.80;89.90;;;;;;4974252;28;93463;-72
2023/01/30 01:54:40;;;;;;;23.77;8.50;;;-1.80;90.00;;;;;;4974998;28;93961;-72
2023/01/30 01:57:22;;;;;;;23.60;8.13;;;-1.80;89.70;;;;;;4970233;28;91561;-72
2023/01/30 01:59:53;;;;;;;23.83;8.38;;;-1.90;89.80;;;;;;4967665;28;92577;-73
2023/01/30 02:02:19;;;;;;;26.45;9.25;;;-1.90;89.90;;;;;;4973036;28;92717;-71
2023/01/30 02:05:01;;;;;;;24.48;8.85;;;-1.90;89.70;;;;;;4974901;28;93341;-72
2023/01/30 02:07:33;;;;;;;19.08;7.72;;;-1.90;90.10;;;;;;4966230;28;92569;-72
2023/01/30 02:10:00;;;;;;;21.23;7.97;;;-1.90;90.20;;;;;;4973818;28;92590;-72
2023/01/30 02:12:25;;;;;;;20.60;8.35;;;-1.90;90.20;;;;;;4965820;28;92900;-72
2023/01/30 02:14:53;;;;;;;22.35;8.85;;;-2.00;90.20;;;;;;4973551;28;93874;-72
2023/01/30 02:17:19;;;;;;;19.95;8.10;;;-2.10;90.60;;;;;;4968442;28;92188;-72
2023/01/30 02:20:02;;;;;;;19.73;8.00;;;-2.00;90.40;;;;;;4971692;28;92629;-70
2023/01/30 02:23:01;;;;;;;23.08;8.88;;;-2.00;90.60;;;;;;4971047;28;93090;-71
2023/01/30 02:25:33;;;;;;;22.05;8.70;;;-2.00;90.90;;;;;;4983187;28;92380;-71
2023/01/30 02:28:01;;;;;;;24.02;9.50;;;-2.00;90.70;;;;;;4963525;28;92109;-73
2023/01/30 02:30:56;;;;;;;26.73;8.60;;;-2.10;90.60;;;;;;4971168;28;93375;-73
2023/01/30 02:33:40;;;;;;;24.27;8.00;;;-2.10;90.40;;;;;;4976991;28;94351;-73
2023/01/30 02:36:34;;;;;;;23.38;8.63;;;-2.20;90.30;;;;;;4973326;28;92522;-73
2023/01/30 02:39:16;;;;;;;23.13;8.40;;;-2.20;90.50;;;;;;4969199;28;92812;-72
2023/01/30 02:41:50;;;;;;;22.63;8.50;;;-2.20;90.40;;;;;;4967607;28;93402;-72
2023/01/30 02:44:50;;;;;;;23.90;8.95;;;-2.20;90.50;;;;;;4967944;28;92876;-71
2023/01/30 02:47:28;;;;;;;26.10;9.02;;;-2.20;90.60;;;;;;4969953;28;92419;-71
2023/01/30 02:50:01;;;;;;;23.88;7.97;;;-2.30;90.70;;;;;;4973987;28;91337;-71
2023/01/30 02:52:29;;;;;;;24.08;8.68;;;-2.30;90.70;;;;;;4966346;28;93321;-71
2023/01/30 02:54:55;;;;;;;23.33;8.57;;;-2.50;90.90;;;;;;4966072;28;93158;-71
2023/01/30 02:57:23;;;;;;;21.63;8.48;;;-2.50;91.10;;;;;;4971109;28;93491;-71
2023/01/30 02:59:57;;;;;;;20.85;8.23;;;-2.60;91.20;;;;;;4974571;28;92701;-71
2023/01/30 03:02:35;;;;;;;21.63;8.45;;;-2.60;91.20;;;;;;4972866;28;93707;-71
2023/01/30 03:05:09;;;;;;;26.42;9.43;;;-2.60;91.40;;;;;;4972672;28;92625;-72
2023/01/30 03:08:02;;;;;;;23.48;8.57;;;-2.60;91.50;;;;;;4970413;28;94449;-72
2023/01/30 03:10:57;;;;;;;22.10;8.82;;;-2.60;91.60;;;;;;4970161;28;92379;-71
2023/01/30 03:13:59;;;;;;;26.67;8.60;;;-2.60;91.50;;;;;;4971406;28;95342;-72
2023/01/30 03:16:34;;;;;;;23.42;8.88;;;-2.50;91.50;;;;;;4972862;28;92809;-71
2023/01/30 03:19:02;;;;;;;23.33;8.30;;;-2.40;91.30;;;;;;4969400;28;92459;-71
2023/01/30 03:21:28;;;;;;;25.38;9.45;;;-2.40;91.20;;;;;;4971270;28;93625;-71
2023/01/30 03:23:53;;;;;;;25.08;8.77;;;-2.40;91.10;;;;;;4973299;28;93684;-72
2023/01/30 03:26:23;;;;;;;23.85;9.00;;;-2.40;91.20;;;;;;4965871;28;94005;-70
2023/01/30 03:28:50;;;;;;;23.35;8.15;;;-2.40;91.50;;;;;;4969349;28;93690;-71
2023/01/30 03:31:16;;;;;;;27.00;10.07;;;-2.40;91.60;;;;;;4972698;28;92570;-69
2023/01/30 03:33:42;;;;;;;24.67;9.52;;;-2.30;91.60;;;;;;4971131;28;93903;-70
2023/01/30 03:36:08;;;;;;;24.48;9.20;;;-2.40;91.50;;;;;;4972635;28;92579;-70
2023/01/30 03:38:35;;;;;;;24.92;10.18;;;-2.30;91.40;;;;;;4967381;28;92767;-70
2023/01/30 03:41:02;;;;;;;25.75;9.25;;;-2.30;91.20;;;;;;4971446;28;92383;-70
2023/01/30 03:43:28;;;;;;;25.17;9.75;;;-2.30;91.00;;;;;;4960848;28;93049;-72
2023/01/30 03:45:53;;;;;;;25.27;9.05;;;-2.30;91.30;;;;;;4971884;28;93103;-70
2023/01/30 03:48:19;;;;;;;25.08;9.77;;;-2.30;91.30;;;;;;4967046;28;93698;-69
2023/01/30 03:50:45;;;;;;;24.52;9.25;;;-2.30;91.00;;;;;;4973445;28;93415;-70
2023/01/30 03:53:10;;;;;;;24.83;9.57;;;-2.40;91.20;;;;;;4973336;28;94582;-70
2023/01/30 03:55:36;;;;;;;23.52;9.30;;;-2.40;91.20;;;;;;4970681;28;92846;-70
2023/01/30 03:58:02;;;;;;;29.55;9.77;;;-2.40;91.30;;;;;;4971930;28;93154;-70
2023/01/30 04:00:28;;;;;;;24.52;9.18;;;-2.50;91.30;;;;;;4970938;28;92161;-70
2023/01/30 04:02:55;;;;;;;32.55;9.82;;;-2.60;91.60;;;;;;4971297;28;93879;-70
2023/01/30 04:05:21;;;;;;;24.73;9.25;;;-2.50;91.80;;;;;;4973022;28;91575;-72
2023/01/30 04:07:47;;;;;;;23.70;8.50;;;-2.60;91.80;;;;;;4969789;28;92537;-71
2023/01/30 04:10:14;;;;;;;24.65;8.38;;;-2.70;91.70;;;;;;4978719;28;92662;-71
2023/01/30 04:12:43;;;;;;;22.63;8.68;;;-2.60;91.80;;;;;;4967466;28;94363;-71
2023/01/30 04:15:09;;;;;;;26.20;9.18;;;-2.60;91.80;;;;;;4977783;28;94280;-70
2023/01/30 04:17:35;;;;;;;24.95;9.40;;;-2.60;91.60;;;;;;4973356;28;92530;-70
2023/01/30 04:20:00;;;;;;;23.75;9.07;;;-2.50;91.60;;;;;;4976384;28;92712;-72
2023/01/30 04:22:26;;;;;;;25.05;9.57;;;-2.60;91.70;;;;;;4973561;28;92448;-72
2023/01/30 04:24:52;;;;;;;28.02;9.50;;;-2.60;91.90;;;;;;4974988;28;92940;-70
2023/01/30 04:27:17;;;;;;;27.40;8.88;;;-2.60;91.90;;;;;;4963508;28;94127;-71
2023/01/30 04:29:43;;;;;;;26.65;9.57;;;-2.50;91.80;;;;;;4969271;28;91958;-71
2023/01/30 04:32:09;;;;;;;26.70;9.95;;;-2.60;91.90;;;;;;4964698;28;93612;-71
2023/01/30 04:34:34;;;;;;;30.38;10.82;;;-2.50;91.90;;;;;;4966524;28;94139;-71
2023/01/30 04:37:00;;;;;;;26.10;9.85;;;-2.40;91.90;;;;;;4965185;28;93554;-71
2023/01/30 04:39:26;;;;;;;25.48;9.48;;;-2.40;92.00;;;;;;4965443;28;93490;-71
2023/01/30 04:41:51;;;;;;;25.95;9.65;;;-2.30;92.00;;;;;;4996333;28;93215;-71
2023/01/30 04:44:17;;;;;;;25.52;9.38;;;-2.20;91.70;;;;;;4984216;28;93598;-71
2023/01/30 04:46:43;;;;;;;21.95;8.75;;;-2.20;91.50;;;;;;4971254;28;92542;-71
2023/01/30 04:49:09;;;;;;;23.52;8.98;;;-2.10;91.30;;;;;;4971461;28;92560;-71
2023/01/30 04:51:35;;;;;;;24.10;8.27;;;-2.10;91.20;;;;;;4974735;28;93258;-70
2023/01/30 04:54:02;;;;;;;23.52;8.55;;;-2.10;91.30;;;;;;4967604;28;94077;-70
2023/01/30 04:56:28;;;;;;;25.00;8.57;;;-2.00;91.20;;;;;;4975238;28;92811;-71
2023/01/30 04:58:53;;;;;;;22.83;7.80;;;-2.00;91.20;;;;;;4972953;28;92571;-71
2023/01/30 05:01:29;;;;;;;21.77;7.88;;;-2.00;91.00;;;;;;4974542;28;93566;-72
2023/01/30 05:03:55;;;;;;;22.27;8.30;;;-2.00;91.00;;;;;;4969224;28;93420;-71
2023/01/30 05:06:22;;;;;;;21.45;8.43;;;-2.00;91.10;;;;;;4961127;28;92638;-69
2023/01/30 05:08:52;;;;;;;23.95;9.05;;;-2.00;91.30;;;;;;4963155;28;92441;-69
2023/01/30 05:11:19;;;;;;;22.27;8.55;;;-1.90;91.20;;;;;;4969218;28;92492;-68
2023/01/30 05:13:44;;;;;;;24.45;8.65;;;-1.90;91.10;;;;;;4975743;28;93600;-69
2023/01/30 05:16:11;;;;;;;21.17;7.78;;;-1.80;91.10;;;;;;4977381;28;92691;-69
2023/01/30 05:18:37;;;;;;;19.73;7.30;;;-1.80;90.80;;;;;;4973636;28;91360;-70
2023/01/30 05:21:08;;;;;;;16.95;6.10;;;-1.70;90.50;;;;;;4973001;28;93206;-70
2023/01/30 05:23:34;;;;;;;18.38;6.03;;;-1.60;90.00;;;;;;4975208;28;92419;-71
2023/01/30 05:26:00;;;;;;;17.85;6.03;;;-1.40;89.10;;;;;;4972258;28;93272;-70
2023/01/30 05:28:26;;;;;;;19.42;6.55;;;-1.40;88.70;;;;;;4967945;28;93628;-71
2023/01/30 05:30:52;;;;;;;17.77;6.95;;;-1.40;88.30;;;;;;4973943;28;92456;-70
2023/01/30 05:33:18;;;;;;;19.20;6.53;;;-1.40;88.00;;;;;;4963016;28;93316;-71
2023/01/30 05:35:48;;;;;;;16.35;6.20;;;-1.30;88.20;;;;;;4961528;28;92531;-70
2023/01/30 05:38:13;;;;;;;22.02;6.78;;;-1.30;88.30;;;;;;4960278;28;92423;-70
2023/01/30 05:40:39;;;;;;;18.10;7.13;;;-1.40;88.30;;;;;;4959446;28;93193;-71
2023/01/30 05:43:05;;;;;;;17.92;7.18;;;-1.50;88.00;;;;;;4966230;28;92898;-70
2023/01/30 05:45:30;;;;;;;18.67;6.97;;;-1.50;88.20;;;;;;4966269;28;92833;-70
2023/01/30 05:47:56;;;;;;;18.73;7.25;;;-1.50;88.10;;;;;;4969714;28;92525;-70
2023/01/30 05:50:22;;;;;;;19.13;6.90;;;-1.50;88.00;;;;;;4986922;28;93726;-70
2023/01/30 05:52:47;;;;;;;19.20;6.75;;;-1.50;88.60;;;;;;4985812;28;93159;-70
2023/01/30 05:55:13;;;;;;;18.48;6.72;;;-1.50;88.60;;;;;;4974985;28;92538;-71
2023/01/30 05:57:39;;;;;;;16.83;6.82;;;-1.50;88.80;;;;;;4974126;28;92090;-71
2023/01/30 06:00:05;;;;;;;22.08;7.68;;;-1.40;88.70;;;;;;4976184;28;93211;-70
2023/01/30 06:02:31;;;;;;;19.10;7.32;;;-1.40;88.60;;;;;;4968072;28;94063;-71
2023/01/30 06:04:57;;;;;;;18.70;7.35;;;-1.40;88.50;;;;;;4961193;28;94709;-71
2023/01/30 06:07:22;;;;;;;18.17;7.45;;;-1.40;88.40;;;;;;4965557;28;93789;-70
2023/01/30 06:09:48;;;;;;;20.85;7.45;;;-1.40;88.40;;;;;;4961526;28;93914;-70
2023/01/30 06:12:14;;;;;;;18.90;7.35;;;-1.40;88.40;;;;;;4961383;28;94435;-70
2023/01/30 06:14:39;;;;;;;20.27;7.45;;;-1.50;88.40;;;;;;4962711;28;93452;-70
2023/01/30 06:17:05;;;;;;;18.40;6.72;;;-1.40;88.10;;;;;;4960508;28;92603;-70
2023/01/30 06:19:31;;;;;;;19.70;7.68;;;-1.40;87.70;;;;;;4963549;28;93236;-70
2023/01/30 06:21:56;;;;;;;20.90;7.80;;;-1.40;87.50;;;;;;4960598;28;92932;-69
2023/01/30 06:24:22;;;;;;;20.75;8.15;;;-1.40;87.70;;;;;;4963714;28;92592;-70
2023/01/30 06:26:48;;;;;;;20.13;7.22;;;-1.50;87.90;;;;;;4958612;28;94136;-70
2023/01/30 06:29:14;;;;;;;23.00;7.72;;;-1.50;88.10;;;;;;4961200;28;92657;-70
2023/01/30 06:31:39;;;;;;;22.45;8.02;;;-1.50;87.90;;;;;;4963022;28;93315;-70
2023/01/30 06:34:05;;;;;;;22.17;7.65;;;-1.50;87.90;;;;;;4965653;28;94253;-71
2023/01/30 06:36:31;;;;;;;22.33;7.07;;;-1.50;87.90;;;;;;4961890;28;92621;-71
2023/01/30 06:38:57;;;;;;;18.17;7.47;;;-1.50;87.80;;;;;;4958880;28;94902;-70
2023/01/30 06:41:22;;;;;;;21.10;7.38;;;-1.50;88.00;;;;;;4960295;28;92618;-71
2023/01/30 06:43:48;;;;;;;22.67;7.10;;;-1.50;87.90;;;;;;4962553;28;93935;-70
2023/01/30 06:46:14;;;;;;;20.27;7.70;;;-1.50;87.80;;;;;;4962047;28;92796;-71
2023/01/30 06:48:39;;;;;;;19.73;6.90;;;-1.50;87.90;;;;;;4963651;28;94240;-72
2023/01/30 06:51:05;;;;;;;17.45;6.97;;;-1.50;88.50;;;;;;4960391;28;92885;-71
2023/01/30 06:53:31;;;;;;;20.45;7.60;;;-1.60;88.40;;;;;;4966088;28;92435;-70
2023/01/30 06:56:01;;;;;;;23.60;9.00;;;-1.60;88.40;;;;;;4958920;28;92202;-71
2023/01/30 06:58:27;;;;;;;24.77;8.93;;;-1.50;88.70;;;;;;4965820;28;94304;-70
2023/01/30 07:00:53;;;;;;;29.13;12.07;;;-1.50;88.20;;;;;;4963190;28;94111;-69
2023/01/30 07:03:18;;;;;;;27.67;11.38;;;-1.50;88.00;;;;;;4955689;28;95124;-72
2023/01/30 07:05:46;;;;;;;24.00;8.95;;;-1.50;87.90;;;;;;4960226;28;92650;-70
2023/01/30 07:08:13;;;;;;;26.40;9.60;;;-1.50;88.10;;;;;;4959782;28;92915;-69
2023/01/30 07:10:40;;;;;;;27.10;10.23;;;-1.50;88.30;;;;;;4958707;28;94026;-70
2023/01/30 07:13:05;;;;;;;26.15;10.07;;;-1.50;87.90;;;;;;4961600;28;92394;-70
2023/01/30 07:15:31;;;;;;;26.45;10.00;;;-1.40;87.60;;;;;;4961076;28;92804;-72
2023/01/30 07:17:57;;;;;;;25.95;10.40;;;-1.30;87.20;;;;;;4961763;28;93701;-71
2023/01/30 07:20:23;;;;;;;29.08;10.38;;;-1.30;87.10;;;;;;4963389;28;92058;-71
2023/01/30 07:22:53;;;;;;;23.58;9.27;;;-1.20;86.90;;;;;;4973759;28;92596;-72
2023/01/30 07:25:21;;;;;;;22.02;9.38;;;-1.10;87.30;;;;;;4966420;28;93038;-72
2023/01/30 07:27:55;;;;;;;26.67;10.18;;;-1.00;86.80;;;;;;4967460;28;94222;-71
2023/01/30 07:30:20;;;;;;;30.05;13.55;;;-0.90;86.30;;;;;;4961138;28;94053;-71
2023/01/30 07:32:54;;;;;;;24.15;9.68;;;-0.90;86.10;;;;;;4952634;28;92562;-71
2023/01/30 07:35:21;;;;;;;27.17;9.65;;;-0.70;85.90;;;;;;4967844;28;93861;-71
2023/01/30 07:37:48;;;;;;;24.90;10.13;;;-0.60;85.50;;;;;;4966723;28;93416;-70
2023/01/30 07:40:14;;;;;;;26.55;9.60;;;-0.30;84.50;;;;;;4964956;28;93064;-70
2023/01/30 07:42:40;;;;;;;25.38;9.13;;;0.10;83.50;;;;;;4966167;28;92556;-70
2023/01/30 07:45:06;;;;;;;25.50;10.75;;;0.50;81.50;;;;;;4967158;28;93527;-70
2023/01/30 07:47:32;;;;;;;31.63;11.02;;;1.00;80.40;;;;;;4962152;28;92724;-71
2023/01/30 07:49:58;;;;;;;25.13;9.82;;;2.10;78.80;;;;;;4963105;28;92805;-71
2023/01/30 07:52:23;;;;;;;23.08;10.50;;;3.40;74.50;;;;;;4956312;28;93312;-71
2023/01/30 07:54:49;;;;;;;27.05;13.45;;;4.40;69.80;;;;;;4962522;28;94019;-71
2023/01/30 07:57:15;;;;;;;28.05;12.25;;;4.70;66.80;;;;;;4958735;28;92783;-71
2023/01/30 07:59:41;;;;;;;26.27;11.43;;;4.10;67.90;;;;;;4958059;28;92364;-71
2023/01/30 08:02:09;;;;;;;22.90;10.05;;;3.70;69.00;;;;;;4959690;28;92721;-72
2023/01/30 08:04:35;;;;;;;21.30;9.68;;;3.20;70.70;;;;;;4964284;28;93221;-70
2023/01/30 08:07:01;;;;;;;22.88;10.05;;;2.90;71.10;;;;;;4965442;28;93685;-70
2023/01/30 08:09:26;;;;;;;25.63;9.00;;;2.90;72.60;;;;;;4960631;28;92358;-70
2023/01/30 08:11:52;;;;;;;21.85;8.52;;;3.70;70.10;;;;;;4964789;28;92894;-72
2023/01/30 08:14:18;;;;;;;19.92;8.98;;;4.50;67.60;;;;;;4961194;28;94053;-71
2023/01/30 08:16:43;;;;;;;16.73;7.55;;;5.20;66.60;;;;;;4953397;28;94663;-71
2023/01/30 08:19:09;;;;;;;15.55;7.15;;;5.30;64.50;;;;;;4961827;28;93632;-71
2023/01/30 08:21:35;;;;;;;17.15;7.60;;;5.50;64.30;;;;;;4963994;28;93988;-71
2023/01/30 08:24:00;;;;;;;16.00;7.22;;;5.80;63.30;;;;;;4963121;28;93049;-71
2023/01/30 08:26:26;;;;;;;16.15;7.03;;;6.00;62.80;;;;;;4964826;28;94652;-71
2023/01/30 08:28:54;;;;;;;16.70;7.47;;;6.10;62.80;;;;;;4959566;28;92900;-71
2023/01/30 08:31:20;;;;;;;19.63;8.43;;;5.60;63.00;;;;;;4961420;28;94470;-71
2023/01/30 08:33:46;;;;;;;19.60;7.93;;;5.50;64.50;;;;;;4959695;28;92372;-71
2023/01/30 08:36:12;;;;;;;20.38;8.65;;;5.50;64.20;;;;;;4964169;28;93642;-71
2023/01/30 08:38:38;;;;;;;15.82;7.00;;;5.50;63.40;;;;;;4960510;28;92935;-72
2023/01/30 08:41:06;;;;;;;18.35;9.10;;;5.50;63.60;;;;;;4961396;28;93977;-70
2023/01/30 08:43:33;;;;;;;29.17;9.95;;;5.60;63.70;;;;;;4963547;28;92578;-71
2023/01/30 08:45:59;;;;;;;17.48;8.38;;;5.80;63.40;;;;;;4959904;28;92799;-71
2023/01/30 08:48:25;;;;;;;18.55;8.98;;;6.60;62.20;;;;;;4957826;28;92878;-71
2023/01/30 08:50:52;;;;;;;19.42;9.07;;;7.80;60.40;;;;;;4964927;28;92641;-71
2023/01/30 08:53:18;;;;;;;16.48;8.93;;;10.10;55.30;;;;;;4965892;28;93698;-72
2023/01/30 08:55:44;;;;;;;18.48;9.20;;;12.00;51.70;;;;;;4959054;28;93722;-72
2023/01/30 08:58:10;;;;;;;17.63;9.93;;;13.20;48.20;;;;;;4962540;28;93411;-74
2023/01/30 09:00:36;;;;;;;16.20;9.35;;;13.20;45.90;;;;;;4968445;28;93556;-76
2023/01/30 09:03:01;;;;;;;21.05;10.00;;;12.40;48.20;;;;;;4967899;28;93912;-71
2023/01/30 09:05:28;;;;;;;18.83;9.93;;;10.90;49.30;;;;;;4962851;28;93964;-73
2023/01/30 09:07:54;;;;;;;17.88;8.90;;;9.60;51.40;;;;;;4962960;28;93872;-72
2023/01/30 09:10:21;;;;;;;19.90;9.85;;;9.30;53.70;;;;;;4967396;28;92932;-70
2023/01/30 09:12:47;;;;;;;23.05;9.65;;;10.00;54.40;;;;;;4955929;28;92770;-72
2023/01/30 09:15:13;;;;;;;17.23;8.65;;;9.70;52.20;;;;;;4961157;28;93635;-71
2023/01/30 09:17:39;;;;;;;15.63;8.02;;;9.10;53.50;;;;;;4959314;28;94191;-71
2023/01/30 09:20:07;;;;;;;20.63;9.23;;;8.80;54.50;;;;;;4957312;28;94039;-72
2023/01/30 09:22:32;;;;;;;19.95;9.60;;;8.40;55.20;;;;;;4958341;28;92029;-72
2023/01/30 09:24:58;;;;;;;19.55;8.85;;;7.90;56.40;;;;;;4960081;28;92783;-72
2023/01/30 09:27:24;;;;;;;18.50;9.77;;;7.50;57.60;;;;;;4964580;28;93254;-73
2023/01/30 09:29:49;;;;;;;19.50;9.45;;;7.20;59.40;;;;;;4964293;28;95609;-71
2023/01/30 09:32:15;;;;;;;18.95;9.38;;;7.10;59.50;;;;;;4958086;28;93945;-71
2023/01/30 09:34:41;;;;;;;19.00;10.05;;;7.30;59.20;;;;;;4959942;28;93943;-71
2023/01/30 09:37:07;;;;;;;23.65;10.27;;;7.40;58.90;;;;;;4955082;28;94475;-71
2023/01/30 09:39:33;;;;;;;20.30;10.20;;;7.80;58.90;;;;;;4960914;28;94148;-70
2023/01/30 09:42:01;;;;;;;23.13;10.85;;;9.40;56.50;;;;;;4956673;28;92518;-71
2023/01/30 09:44:54;;;;;;;18.05;8.98;;;9.90;53.90;;;;;;4963594;28;94702;-73
2023/01/30 09:47:28;;;;;;;19.08;10.07;;;9.60;53.50;;;;;;4962399;28;92907;-72
2023/01/30 09:50:05;;;;;;;23.80;10.95;;;9.60;54.20;;;;;;4963172;28;93118;-70
2023/01/30 09:52:53;;;;;;;20.98;10.43;;;9.10;54.40;;;;;;4961435;28;92812;-71
2023/01/30 09:55:28;;;;;;;20.13;10.13;;;8.90;55.20;;;;;;4963097;28;93510;-71
2023/01/30 09:57:57;;;;;;;19.92;8.90;;;9.10;55.00;;;;;;4956231;28;93323;-71
2023/01/30 10:00:42;;;;;;;20.00;10.13;;;8.80;55.40;;;;;;4968966;28;94309;-71
2023/01/30 10:03:07;;;;;;;31.38;13.15;;;8.40;56.00;;;;;;4977206;28;92502;-71
2023/01/30 10:05:48;;;;;;;19.08;10.00;;;7.80;57.60;;;;;;4968809;28;92684;-71
2023/01/30 10:08:22;;;;;;;21.92;11.40;;;7.60;58.80;;;;;;4967082;28;93480;-71
2023/01/30 10:11:25;;;;;;;26.33;10.57;;;7.20;58.70;;;;;;4969620;28;92603;-71
2023/01/30 10:14:24;;;;;;;21.08;10.13;;;6.90;59.10;;;;;;4964825;28;92090;-71
2023/01/30 10:17:31;;;;;;;19.58;8.48;;;6.50;59.80;;;;;;4953928;28;93069;-70
2023/01/30 10:20:13;;;;;;;25.55;10.63;;;6.60;60.80;;;;;;4968995;28;92656;-72
2023/01/30 10:23:11;;;;;;;21.48;10.00;;;6.80;61.50;;;;;;4967366;28;93436;-73
2023/01/30 10:26:00;;;;;;;22.38;10.20;;;8.50;59.10;;;;;;4969807;28;92412;-72
2023/01/30 10:28:42;;;;;;;17.98;9.38;;;10.50;53.30;;;;;;4966686;28;92555;-72
2023/01/30 10:31:14;;;;;;;21.30;9.30;;;11.60;50.40;;;;;;4968452;28;92734;-73
2023/01/30 10:33:56;;;;;;;23.35;8.95;;;11.00;50.20;;;;;;4968221;28;92607;-72
2023/01/30 10:36:48;;;;;;;21.02;11.18;;;10.50;51.90;;;;;;4965902;28;94364;-73
2023/01/30 10:39:54;;;;;;;27.85;12.93;;;9.40;53.00;;;;;;4971709;28;93220;-72
2023/01/30 10:42:33;;;;;;;19.65;10.50;;;8.60;54.50;;;;;;4972028;28;93348;-71
2023/01/30 10:45:14;;;;;;;21.73;9.88;;;8.10;56.20;;;;;;4960114;28;93955;-73
2023/01/30 10:47:44;;;;;;;18.73;9.10;;;7.70;57.20;;;;;;4962246;28;93063;-72
2023/01/30 10:50:15;;;;;;;23.27;10.48;;;7.90;60.10;;;;;;4968684;28;93475;-72
2023/01/30 10:53:21;;;;;;;17.02;8.93;;;7.70;58.00;;;;;;4963681;28;93442;-72
2023/01/30 10:56:12;;;;;;;19.75;10.15;;;7.50;61.70;;;;;;4962303;28;92543;-72
2023/01/30 10:58:57;;;;;;;19.58;9.10;;;7.30;58.90;;;;;;4966387;28;92552;-72
2023/01/30 11:01:44;;;;;;;21.83;9.82;;;7.20;59.10;;;;;;4971763;28;93859;-72
2023/01/30 11:04:39;;;;;;;17.83;9.20;;;7.20;60.40;;;;;;4966951;28;94120;-72
2023/01/30 11:07:06;;;;;;;20.02;9.73;;;7.20;59.10;;;;;;4963895;28;92503;-72
2023/01/30 11:09:43;;;;;;;22.48;9.43;;;6.90;59.70;;;;;;4967712;28;91929;-73
2023/01/30 11:12:10;;;;;;;19.98;7.97;;;6.50;60.80;;;;;;4967085;28;93417;-73
2023/01/30 11:14:58;;;;;;;21.63;8.95;;;6.10;61.20;;;;;;4971601;28;94364;-72
2023/01/30 11:17:44;;;;;;;21.30;9.23;;;5.70;62.10;;;;;;4960720;28;93536;-72
2023/01/30 11:20:17;;;;;;;20.60;9.60;;;5.40;63.90;;;;;;4968524;28;92238;-71
2023/01/30 11:22:51;;;;;;;24.15;9.57;;;5.30;64.80;;;;;;4962795;28;92965;-71
2023/01/30 11:25:21;;;;;;;20.70;9.25;;;5.20;65.00;;;;;;4961848;28;92374;-71
2023/01/30 11:27:58;;;;;;;23.15;9.23;;;5.00;66.00;;;;;;4968002;28;93861;-73
2023/01/30 11:30:32;;;;;;;22.20;8.40;;;4.80;67.10;;;;;;4968206;28;92586;-70
2023/01/30 11:33:16;;;;;;;20.00;7.97;;;4.80;67.40;;;;;;4961545;28;93178;-70
2023/01/30 11:36:00;;;;;;;17.92;7.10;;;4.80;66.40;;;;;;4956606;28;92397;-71
2023/01/30 11:38:32;;;;;;;23.60;6.75;;;4.60;66.60;;;;;;4964914;28;92689;-70
2023/01/30 11:41:09;;;;;;;18.88;7.18;;;4.60;67.20;;;;;;4966805;28;92596;-73
2023/01/30 11:43:41;;;;;;;18.17;7.80;;;4.60;66.20;;;;;;4964376;28;94180;-72
2023/01/30 11:46:09;;;;;;;15.25;5.97;;;4.70;66.80;;;;;;4963708;28;93937;-73
2023/01/30 11:48:52;;;;;;;15.85;5.95;;;4.80;65.30;;;;;;4961260;28;92537;-72
2023/01/30 11:51:22;;;;;;;15.82;5.47;;;4.90;63.70;;;;;;4963186;28;92840;-71
2023/01/30 11:54:01;;;;;;;12.93;5.55;;;5.00;63.80;;;;;;4966969;28;94493;-70
2023/01/30 11:56:32;;;;;;;15.68;6.03;;;5.00;65.10;;;;;;4966577;28;92668;-71
2023/01/30 11:59:15;;;;;;;17.02;6.65;;;5.20;64.00;;;;;;4967851;28;94937;-73
2023/01/30 12:01:40;;;;;;;18.63;6.57;;;5.20;64.70;;;;;;4957022;28;93444;-70
2023/01/30 12:04:18;;;;;;;17.33;7.03;;;5.20;65.20;;;;;;4966574;28;93237;-70
2023/01/30 12:06:44;;;;;;;16.48;6.82;;;5.30;65.70;;;;;;4964382;28;93749;-71
2023/01/30 12:09:35;;;;;;;13.43;5.93;;;5.50;66.40;;;;;;4959954;28;93358;-71
2023/01/30 12:12:02;;;;;;;13.20;5.85;;;5.60;63.60;;;;;;4967562;28;93511;-72
2023/01/30 12:14:41;;;;;;;17.48;6.45;;;5.90;63.50;;;;;;4984894;28;92694;-72
2023/01/30 12:17:26;;;;;;;10.82;5.00;;;6.10;62.80;;;;;;4968744;28;92887;-72
2023/01/30 12:20:28;;;;;;;13.40;5.75;;;6.40;62.10;;;;;;4963326;28;94056;-73
2023/01/30 12:23:20;;;;;;;12.02;5.50;;;6.50;62.40;;;;;;4979359;28;92216;-73
2023/01/30 12:26:11;;;;;;;14.25;5.75;;;6.60;61.30;;;;;;4973081;28;93055;-69
2023/01/30 12:28:59;;;;;;;11.75;5.43;;;6.60;61.50;;;;;;4961275;28;93202;-71
2023/01/30 12:31:36;;;;;;;16.75;7.45;;;6.60;61.90;;;;;;4976640;28;92505;-70
2023/01/30 12:34:02;;;;;;;15.15;6.65;;;6.70;60.90;;;;;;4972677;28;92653;-70
2023/01/30 12:36:44;;;;;;;13.57;6.30;;;6.90;60.50;;;;;;4966109;28;94511;-71
2023/01/30 12:39:48;;;;;;;14.70;6.70;;;7.10;61.20;;;;;;4961264;28;92627;-71
2023/01/30 12:42:48;;;;;;;12.82;4.38;;;7.60;59.90;;;;;;4961568;28;94495;-70
2023/01/30 12:45:24;;;;;;;10.07;4.70;;;7.70;59.30;;;;;;4967296;28;93287;-73
2023/01/30 12:47:56;;;;;;;10.65;4.30;;;7.70;59.40;;;;;;4965303;28;93205;-71
2023/01/30 12:50:50;;;;;;;10.10;5.00;;;7.70;57.80;;;;;;4965876;28;93402;-71
2023/01/30 12:53:27;;;;;;;8.43;2.38;;;7.70;59.90;;;;;;4964846;28;92510;-70
2023/01/30 12:56:26;;;;;;;10.75;4.22;;;7.80;58.90;;;;;;4976487;28;91844;-70
2023/01/30 12:59:23;;;;;;;11.07;4.97;;;7.80;58.80;;;;;;4974128;28;93151;-70
2023/01/30 13:02:16;;;;;;;5.28;1.85;;;7.80;58.70;;;;;;4967357;28;94781;-70
2023/01/30 13:05:05;;;;;;;5.90;1.45;;;7.80;61.80;;;;;;4961498;28;93309;-71